sensor_id;sensor_type;location;lat;lon;timestamp;temperature;humidity
52413;DHT22;38339;53.234;6.578;2022-09-25T00:00:47;10.80;99.90
52413;DHT22;38339;53.234;6.578;2022-09-25T00:03:14;10.80;99.90
52413;DHT22;38339;53.234;6.578;2022-09-25T00:05:42;10.80;99.90
52413;DHT22;38339;53.234;6.578;2022-09-25T00:08:10;10.80;99.90
52413;DHT22;38339;53.234;6.578;2022-09-25T00:10:48;10.70;99.90
52413;DHT22;38339;53.234;6.578;2022-09-25T00:13:19;10.70;99.90
52413;DHT22;38339;53.234;6.578;2022-09-25T00:15:53;10.70;99.90
52413;DHT22;38339;53.234;6.578;2022-09-25T00:18:20;10.80;99.90
52413;DHT22;38339;53.234;6.578;2022-09-25T00:21:07;10.70;99.90
52413;DHT22;38339;53.234;6.578;2022-09-25T00:23:33;10.70;99.90
52413;DHT22;38339;53.234;6.578;2022-09-25T00:25:59;10.70;99.90
52413;DHT22;38339;53.234;6.578;2022-09-25T00:28:26;10.70;99.90
52413;DHT22;38339;53.234;6.578;2022-09-25T00:30:55;10.70;99.90
52413;DHT22;38339;53.234;6.578;2022-09-25T00:33:21;10.70;99.90
52413;DHT22;38339;53.234;6.578;2022-09-25T00:35:46;10.70;99.90
52413;DHT22;38339;53.234;6.578;2022-09-25T00:38:12;10.70;99.90
52413;DHT22;38339;53.234;6.578;2022-09-25T00:40:38;10.60;99.90
52413;DHT22;38339;53.234;6.578;2022-09-25T00:43:10;10.60;99.90
52413;DHT22;38339;53.234;6.578;2022-09-25T00:45:37;10.70;99.90
52413;DHT22;38339;53.234;6.578;2022-09-25T00:48:10;10.60;99.90
52413;DHT22;38339;53.234;6.578;2022-09-25T00:50:50;10.60;99.90
52413;DHT22;38339;53.234;6.578;2022-09-25T00:53:24;10.60;99.90
52413;DHT22;38339;53.234;6.578;2022-09-25T00:55:52;10.50;99.90
52413;DHT22;38339;53.234;6.578;2022-09-25T00:58:21;10.50;99.90
52413;DHT22;38339;53.234;6.578;2022-09-25T01:00:47;10.50;99.90
52413;DHT22;38339;53.234;6.578;2022-09-25T01:03:15;10.50;99.90
52413;DHT22;38339;53.234;6.578;2022-09-25T01:05:42;10.50;99.90
52413;DHT22;38339;53.234;6.578;2022-09-25T01:08:12;10.50;99.90
52413;DHT22;38339;53.234;6.578;2022-09-25T01:10:39;10.40;99.90
52413;DHT22;38339;53.234;6.578;2022-09-25T01:13:05;10.50;99.90
52413;DHT22;38339;53.234;6.578;2022-09-25T01:26:46;10.40;99.90
52413;DHT22;38339;53.234;6.578;2022-09-25T01:35:03;10.30;99.90
52413;DHT22;38339;53.234;6.578;2022-09-25T01:37:38;10.30;99.90
52413;DHT22;38339;53.234;6.578;2022-09-25T01:43:13;10.30;99.90
52413;DHT22;38339;53.234;6.578;2022-09-25T01:45:52;10.30;99.90
52413;DHT22;38339;53.234;6.578;2022-09-25T01:48:28;10.30;99.90
52413;DHT22;38339;53.234;6.578;2022-09-25T01:51:26;10.30;99.90
52413;DHT22;38339;53.234;6.578;2022-09-25T01:54:07;10.30;99.90
52413;DHT22;38339;53.234;6.578;2022-09-25T01:56:38;10.30;99.90
52413;DHT22;38339;53.234;6.578;2022-09-25T01:59:09;10.30;99.90
52413;DHT22;38339;53.234;6.578;2022-09-25T02:01:40;10.30;99.90
52413;DHT22;38339;53.234;6.578;2022-09-25T02:04:11;10.30;99.90
52413;DHT22;38339;53.234;6.578;2022-09-25T02:06:41;10.30;99.90
52413;DHT22;38339;53.234;6.578;2022-09-25T02:09:13;10.30;99.90
52413;DHT22;38339;53.234;6.578;2022-09-25T02:11:47;10.30;99.90
52413;DHT22;38339;53.234;6.578;2022-09-25T02:14:19;10.30;99.90
52413;DHT22;38339;53.234;6.578;2022-09-25T02:16:49;10.30;99.90
52413;DHT22;38339;53.234;6.578;2022-09-25T02:19:16;10.30;99.90
52413;DHT22;38339;53.234;6.578;2022-09-25T02:22:20;10.30;99.90
52413;DHT22;38339;53.234;6.578;2022-09-25T02:25:08;10.30;99.90
52413;DHT22;38339;53.234;6.578;2022-09-25T02:27:36;10.30;99.90
52413;DHT22;38339;53.234;6.578;2022-09-25T02:30:01;10.30;99.90
52413;DHT22;38339;53.234;6.578;2022-09-25T02:32:31;10.30;99.90
52413;DHT22;38339;53.234;6.578;2022-09-25T02:34:58;10.20;99.90
52413;DHT22;38339;53.234;6.578;2022-09-25T02:37:24;10.20;99.90
52413;DHT22;38339;53.234;6.578;2022-09-25T02:39:56;10.20;99.90
52413;DHT22;38339;53.234;6.578;2022-09-25T02:42:28;10.20;99.90
52413;DHT22;38339;53.234;6.578;2022-09-25T02:53:31;10.10;99.90
52413;DHT22;38339;53.234;6.578;2022-09-25T02:56:02;10.10;99.90
52413;DHT22;38339;53.234;6.578;2022-09-25T03:01:13;10.10;99.90
52413;DHT22;38339;53.234;6.578;2022-09-25T03:03:39;10.00;99.90
52413;DHT22;38339;53.234;6.578;2022-09-25T03:06:07;10.00;99.90
52413;DHT22;38339;53.234;6.578;2022-09-25T03:08:37;10.00;99.90
52413;DHT22;38339;53.234;6.578;2022-09-25T03:11:09;10.00;99.90
52413;DHT22;38339;53.234;6.578;2022-09-25T03:13:35;10.00;99.90
52413;DHT22;38339;53.234;6.578;2022-09-25T03:18:33;10.00;99.90
52413;DHT22;38339;53.234;6.578;2022-09-25T03:20:59;10.00;99.90
52413;DHT22;38339;53.234;6.578;2022-09-25T03:23:25;10.00;99.90
52413;DHT22;38339;53.234;6.578;2022-09-25T03:25:54;10.00;99.90
52413;DHT22;38339;53.234;6.578;2022-09-25T03:28:20;10.00;99.90
52413;DHT22;38339;53.234;6.578;2022-09-25T03:31:06;10.00;99.90
52413;DHT22;38339;53.234;6.578;2022-09-25T03:33:37;9.90;99.90
52413;DHT22;38339;53.234;6.578;2022-09-25T03:36:09;10.00;99.90
52413;DHT22;38339;53.234;6.578;2022-09-25T03:38:36;9.90;99.90
52413;DHT22;38339;53.234;6.578;2022-09-25T03:41:03;10.00;99.90
52413;DHT22;38339;53.234;6.578;2022-09-25T03:43:30;9.90;99.90
52413;DHT22;38339;53.234;6.578;2022-09-25T03:45:57;9.90;99.90
52413;DHT22;38339;53.234;6.578;2022-09-25T03:48:22;9.90;99.90
52413;DHT22;38339;53.234;6.578;2022-09-25T03:50:48;9.90;99.90
52413;DHT22;38339;53.234;6.578;2022-09-25T03:53:15;9.90;99.90
52413;DHT22;38339;53.234;6.578;2022-09-25T03:55:43;9.90;99.90
52413;DHT22;38339;53.234;6.578;2022-09-25T03:58:11;9.90;99.90
52413;DHT22;38339;53.234;6.578;2022-09-25T04:00:39;9.90;99.90
52413;DHT22;38339;53.234;6.578;2022-09-25T04:03:05;9.80;99.90
52413;DHT22;38339;53.234;6.578;2022-09-25T04:05:31;9.80;99.90
52413;DHT22;38339;53.234;6.578;2022-09-25T04:07:56;9.80;99.90
52413;DHT22;38339;53.234;6.578;2022-09-25T04:10:22;9.80;99.90
52413;DHT22;38339;53.234;6.578;2022-09-25T04:12:48;9.80;99.90
52413;DHT22;38339;53.234;6.578;2022-09-25T04:15:21;9.70;99.90
52413;DHT22;38339;53.234;6.578;2022-09-25T04:17:48;9.70;99.90
52413;DHT22;38339;53.234;6.578;2022-09-25T04:20:14;9.70;99.90
52413;DHT22;38339;53.234;6.578;2022-09-25T04:22:39;9.70;99.90
52413;DHT22;38339;53.234;6.578;2022-09-25T04:25:05;9.70;99.90
52413;DHT22;38339;53.234;6.578;2022-09-25T04:27:32;9.70;99.90
52413;DHT22;38339;53.234;6.578;2022-09-25T04:29:57;9.70;99.90
52413;DHT22;38339;53.234;6.578;2022-09-25T04:32:23;9.60;99.90
52413;DHT22;38339;53.234;6.578;2022-09-25T04:35:07;9.60;99.90
52413;DHT22;38339;53.234;6.578;2022-09-25T04:37:33;9.60;99.90
52413;DHT22;38339;53.234;6.578;2022-09-25T04:40:00;9.60;99.90
52413;DHT22;38339;53.234;6.578;2022-09-25T04:42:26;9.60;99.90
52413;DHT22;38339;53.234;6.578;2022-09-25T04:44:53;9.60;99.90
52413;DHT22;38339;53.234;6.578;2022-09-25T04:47:20;9.60;99.90
52413;DHT22;38339;53.234;6.578;2022-09-25T04:49:47;9.60;99.90
52413;DHT22;38339;53.234;6.578;2022-09-25T04:52:17;9.60;99.90
52413;DHT22;38339;53.234;6.578;2022-09-25T04:54:43;9.60;99.90
52413;DHT22;38339;53.234;6.578;2022-09-25T04:57:12;9.60;99.90
52413;DHT22;38339;53.234;6.578;2022-09-25T04:59:39;9.50;99.90
52413;DHT22;38339;53.234;6.578;2022-09-25T05:02:05;9.60;99.90
52413;DHT22;38339;53.234;6.578;2022-09-25T05:04:31;9.60;99.90
52413;DHT22;38339;53.234;6.578;2022-09-25T05:06:57;9.60;99.90
52413;DHT22;38339;53.234;6.578;2022-09-25T05:09:23;9.60;99.90
52413;DHT22;38339;53.234;6.578;2022-09-25T05:11:48;9.60;99.90
52413;DHT22;38339;53.234;6.578;2022-09-25T05:14:14;9.60;99.90
52413;DHT22;38339;53.234;6.578;2022-09-25T05:16:40;9.60;99.90
52413;DHT22;38339;53.234;6.578;2022-09-25T05:19:05;9.60;99.90
52413;DHT22;38339;53.234;6.578;2022-09-25T05:21:31;9.60;99.90
52413;DHT22;38339;53.234;6.578;2022-09-25T05:23:57;9.60;99.90
52413;DHT22;38339;53.234;6.578;2022-09-25T05:26:23;9.60;99.90
52413;DHT22;38339;53.234;6.578;2022-09-25T05:28:49;9.60;99.90
52413;DHT22;38339;53.234;6.578;2022-09-25T05:31:15;9.60;99.90
52413;DHT22;38339;53.234;6.578;2022-09-25T05:33:42;9.60;99.90
52413;DHT22;38339;53.234;6.578;2022-09-25T05:36:10;9.50;99.90
52413;DHT22;38339;53.234;6.578;2022-09-25T05:38:38;9.60;99.90
52413;DHT22;38339;53.234;6.578;2022-09-25T05:41:06;9.50;99.90
52413;DHT22;38339;53.234;6.578;2022-09-25T05:43:32;9.60;99.90
52413;DHT22;38339;53.234;6.578;2022-09-25T05:45:58;9.50;99.90
52413;DHT22;38339;53.234;6.578;2022-09-25T05:48:24;9.60;99.90
52413;DHT22;38339;53.234;6.578;2022-09-25T05:50:54;9.50;99.90
52413;DHT22;38339;53.234;6.578;2022-09-25T05:53:21;9.50;99.90
52413;DHT22;38339;53.234;6.578;2022-09-25T05:55:54;9.50;99.90
52413;DHT22;38339;53.234;6.578;2022-09-25T05:58:23;9.50;99.90
52413;DHT22;38339;53.234;6.578;2022-09-25T06:00:49;9.50;99.90
52413;DHT22;38339;53.234;6.578;2022-09-25T06:03:16;9.50;99.90
52413;DHT22;38339;53.234;6.578;2022-09-25T06:05:42;9.70;99.90
52413;DHT22;38339;53.234;6.578;2022-09-25T06:08:10;9.50;99.90
52413;DHT22;38339;53.234;6.578;2022-09-25T06:10:37;9.50;99.90
52413;DHT22;38339;53.234;6.578;2022-09-25T06:13:03;9.60;99.90
52413;DHT22;38339;53.234;6.578;2022-09-25T06:15:34;9.60;99.90
52413;DHT22;38339;53.234;6.578;2022-09-25T06:18:07;9.60;99.90
52413;DHT22;38339;53.234;6.578;2022-09-25T06:20:34;9.60;99.90
52413;DHT22;38339;53.234;6.578;2022-09-25T06:23:00;9.70;99.90
52413;DHT22;38339;53.234;6.578;2022-09-25T06:25:28;9.70;99.90
52413;DHT22;38339;53.234;6.578;2022-09-25T06:27:56;9.70;99.90
52413;DHT22;38339;53.234;6.578;2022-09-25T06:30:23;9.80;99.90
52413;DHT22;38339;53.234;6.578;2022-09-25T06:32:57;9.80;99.90
52413;DHT22;38339;53.234;6.578;2022-09-25T06:35:25;9.90;99.90
52413;DHT22;38339;53.234;6.578;2022-09-25T06:37:51;9.80;99.90
52413;DHT22;38339;53.234;6.578;2022-09-25T06:40:20;10.00;99.90
52413;DHT22;38339;53.234;6.578;2022-09-25T06:42:46;9.90;99.90
52413;DHT22;38339;53.234;6.578;2022-09-25T06:45:12;10.00;99.90
52413;DHT22;38339;53.234;6.578;2022-09-25T06:47:37;10.10;99.90
52413;DHT22;38339;53.234;6.578;2022-09-25T06:50:03;10.10;99.90
52413;DHT22;38339;53.234;6.578;2022-09-25T06:52:29;10.20;99.90
52413;DHT22;38339;53.234;6.578;2022-09-25T06:54:54;10.30;99.90
52413;DHT22;38339;53.234;6.578;2022-09-25T06:57:20;10.30;99.90
52413;DHT22;38339;53.234;6.578;2022-09-25T06:59:45;10.30;99.90
52413;DHT22;38339;53.234;6.578;2022-09-25T07:02:11;10.40;99.90
52413;DHT22;38339;53.234;6.578;2022-09-25T07:04:55;10.50;99.90
52413;DHT22;38339;53.234;6.578;2022-09-25T07:07:21;10.50;99.90
52413;DHT22;38339;53.234;6.578;2022-09-25T07:09:49;10.60;99.90
52413;DHT22;38339;53.234;6.578;2022-09-25T07:12:15;10.70;99.90
52413;DHT22;38339;53.234;6.578;2022-09-25T07:14:43;10.80;99.90
52413;DHT22;38339;53.234;6.578;2022-09-25T07:17:12;10.90;99.90
52413;DHT22;38339;53.234;6.578;2022-09-25T07:19:37;11.00;99.90
52413;DHT22;38339;53.234;6.578;2022-09-25T07:22:03;11.10;99.90
52413;DHT22;38339;53.234;6.578;2022-09-25T07:24:29;11.30;99.90
52413;DHT22;38339;53.234;6.578;2022-09-25T07:26:55;11.40;99.90
52413;DHT22;38339;53.234;6.578;2022-09-25T07:29:21;11.60;99.90
52413;DHT22;38339;53.234;6.578;2022-09-25T07:31:46;11.70;99.90
52413;DHT22;38339;53.234;6.578;2022-09-25T07:34:12;11.90;99.90
52413;DHT22;38339;53.234;6.578;2022-09-25T07:36:39;12.00;99.90
52413;DHT22;38339;53.234;6.578;2022-09-25T07:39:07;12.10;99.90
52413;DHT22;38339;53.234;6.578;2022-09-25T07:41:33;12.20;99.90
52413;DHT22;38339;53.234;6.578;2022-09-25T07:43:59;12.30;99.90
52413;DHT22;38339;53.234;6.578;2022-09-25T07:46:26;12.40;99.90
52413;DHT22;38339;53.234;6.578;2022-09-25T07:48:52;12.50;99.90
52413;DHT22;38339;53.234;6.578;2022-09-25T07:51:18;12.50;99.90
52413;DHT22;38339;53.234;6.578;2022-09-25T07:53:46;12.60;99.90
52413;DHT22;38339;53.234;6.578;2022-09-25T07:56:12;12.60;99.90
52413;DHT22;38339;53.234;6.578;2022-09-25T07:58:38;12.70;99.90
52413;DHT22;38339;53.234;6.578;2022-09-25T08:01:06;12.80;99.90
52413;DHT22;38339;53.234;6.578;2022-09-25T08:03:32;12.90;99.90
52413;DHT22;38339;53.234;6.578;2022-09-25T08:08:25;13.10;99.90
52413;DHT22;38339;53.234;6.578;2022-09-25T08:10:50;13.20;99.90
52413;DHT22;38339;53.234;6.578;2022-09-25T08:13:16;13.30;99.90
52413;DHT22;38339;53.234;6.578;2022-09-25T08:15:45;13.50;99.90
52413;DHT22;38339;53.234;6.578;2022-09-25T08:18:11;13.60;99.90
52413;DHT22;38339;53.234;6.578;2022-09-25T08:20:36;13.80;99.90
52413;DHT22;38339;53.234;6.578;2022-09-25T08:23:05;13.90;99.90
52413;DHT22;38339;53.234;6.578;2022-09-25T08:25:31;13.90;99.90
52413;DHT22;38339;53.234;6.578;2022-09-25T08:27:57;14.00;99.90
52413;DHT22;38339;53.234;6.578;2022-09-25T08:30:23;14.10;99.90
52413;DHT22;38339;53.234;6.578;2022-09-25T08:32:49;14.10;99.90
52413;DHT22;38339;53.234;6.578;2022-09-25T08:35:17;14.10;99.90
52413;DHT22;38339;53.234;6.578;2022-09-25T08:37:43;14.10;99.90
52413;DHT22;38339;53.234;6.578;2022-09-25T08:40:26;13.90;99.90
52413;DHT22;38339;53.234;6.578;2022-09-25T08:42:54;13.70;99.90
52413;DHT22;38339;53.234;6.578;2022-09-25T08:45:38;13.50;99.90
52413;DHT22;38339;53.234;6.578;2022-09-25T08:48:30;13.30;99.90
52413;DHT22;38339;53.234;6.578;2022-09-25T08:51:26;13.10;99.90
52413;DHT22;38339;53.234;6.578;2022-09-25T08:53:52;12.90;99.90
52413;DHT22;38339;53.234;6.578;2022-09-25T08:56:18;12.80;99.90
52413;DHT22;38339;53.234;6.578;2022-09-25T09:01:15;12.40;99.90
52413;DHT22;38339;53.234;6.578;2022-09-25T09:04:01;12.40;99.90
52413;DHT22;38339;53.234;6.578;2022-09-25T09:06:32;12.30;99.90
52413;DHT22;38339;53.234;6.578;2022-09-25T09:09:09;12.20;99.90
52413;DHT22;38339;53.234;6.578;2022-09-25T09:11:47;12.20;99.90
52413;DHT22;38339;53.234;6.578;2022-09-25T09:14:19;12.10;99.90
52413;DHT22;38339;53.234;6.578;2022-09-25T09:19:19;12.10;99.90
52413;DHT22;38339;53.234;6.578;2022-09-25T09:30:05;12.20;99.90
52413;DHT22;38339;53.234;6.578;2022-09-25T09:41:17;12.50;99.90
52413;DHT22;38339;53.234;6.578;2022-09-25T09:52:20;12.70;99.90
52413;DHT22;38339;53.234;6.578;2022-09-25T09:57:25;12.80;99.90
52413;DHT22;38339;53.234;6.578;2022-09-25T10:00:10;12.80;99.90
52413;DHT22;38339;53.234;6.578;2022-09-25T10:02:57;12.80;99.90
52413;DHT22;38339;53.234;6.578;2022-09-25T10:05:29;12.90;99.90
52413;DHT22;38339;53.234;6.578;2022-09-25T10:07:56;13.00;99.90
52413;DHT22;38339;53.234;6.578;2022-09-25T10:10:34;13.10;99.90
52413;DHT22;38339;53.234;6.578;2022-09-25T10:13:03;13.20;99.90
52413;DHT22;38339;53.234;6.578;2022-09-25T10:15:35;13.40;99.90
52413;DHT22;38339;53.234;6.578;2022-09-25T10:18:03;13.50;99.90
52413;DHT22;38339;53.234;6.578;2022-09-25T10:20:43;13.60;99.90
52413;DHT22;38339;53.234;6.578;2022-09-25T10:23:29;13.70;99.90
52413;DHT22;38339;53.234;6.578;2022-09-25T10:25:57;13.80;99.90
52413;DHT22;38339;53.234;6.578;2022-09-25T10:28:33;13.90;99.90
52413;DHT22;38339;53.234;6.578;2022-09-25T10:30:59;14.00;99.90
52413;DHT22;38339;53.234;6.578;2022-09-25T10:33:29;14.10;99.90
52413;DHT22;38339;53.234;6.578;2022-09-25T10:35:56;14.20;99.90
52413;DHT22;38339;53.234;6.578;2022-09-25T10:38:44;14.30;99.90
52413;DHT22;38339;53.234;6.578;2022-09-25T10:41:14;14.40;99.90
52413;DHT22;38339;53.234;6.578;2022-09-25T10:43:53;14.60;99.90
52413;DHT22;38339;53.234;6.578;2022-09-25T10:46:33;14.60;99.90
52413;DHT22;38339;53.234;6.578;2022-09-25T10:49:24;14.70;99.90
52413;DHT22;38339;53.234;6.578;2022-09-25T10:52:14;14.80;99.90
52413;DHT22;38339;53.234;6.578;2022-09-25T10:54:40;14.80;99.90
52413;DHT22;38339;53.234;6.578;2022-09-25T10:57:32;14.90;99.90
52413;DHT22;38339;53.234;6.578;2022-09-25T11:00:00;14.90;99.90
52413;DHT22;38339;53.234;6.578;2022-09-25T11:02:36;14.90;99.90
52413;DHT22;38339;53.234;6.578;2022-09-25T11:05:04;14.90;99.90
52413;DHT22;38339;53.234;6.578;2022-09-25T11:07:31;14.80;99.90
52413;DHT22;38339;53.234;6.578;2022-09-25T11:09:57;14.90;99.90
52413;DHT22;38339;53.234;6.578;2022-09-25T11:12:25;14.90;99.90
52413;DHT22;38339;53.234;6.578;2022-09-25T11:14:58;15.00;99.90
52413;DHT22;38339;53.234;6.578;2022-09-25T11:17:53;14.90;99.90
52413;DHT22;38339;53.234;6.578;2022-09-25T11:20:28;14.90;99.90
52413;DHT22;38339;53.234;6.578;2022-09-25T11:26:11;14.90;99.90
52413;DHT22;38339;53.234;6.578;2022-09-25T11:28:57;15.00;99.90
52413;DHT22;38339;53.234;6.578;2022-09-25T11:31:31;15.00;99.90
52413;DHT22;38339;53.234;6.578;2022-09-25T11:34:18;15.10;99.90
52413;DHT22;38339;53.234;6.578;2022-09-25T11:36:51;15.30;99.90
52413;DHT22;38339;53.234;6.578;2022-09-25T11:39:44;15.40;99.90
52413;DHT22;38339;53.234;6.578;2022-09-25T11:48:01;15.50;99.90
52413;DHT22;38339;53.234;6.578;2022-09-25T11:51:13;15.60;99.90
52413;DHT22;38339;53.234;6.578;2022-09-25T11:59:05;15.70;99.90
52413;DHT22;38339;53.234;6.578;2022-09-25T12:01:47;15.60;99.90
52413;DHT22;38339;53.234;6.578;2022-09-25T12:09:46;15.50;99.90
52413;DHT22;38339;53.234;6.578;2022-09-25T12:15:14;15.40;99.90
52413;DHT22;38339;53.234;6.578;2022-09-25T12:23:55;15.30;99.90
52413;DHT22;38339;53.234;6.578;2022-09-25T12:29:12;15.20;99.90
52413;DHT22;38339;53.234;6.578;2022-09-25T12:38:04;15.30;99.90
52413;DHT22;38339;53.234;6.578;2022-09-25T12:40:37;15.30;99.90
52413;DHT22;38339;53.234;6.578;2022-09-25T12:43:13;15.30;99.90
52413;DHT22;38339;53.234;6.578;2022-09-25T12:45:48;15.30;99.90
52413;DHT22;38339;53.234;6.578;2022-09-25T12:51:04;15.30;99.90
52413;DHT22;38339;53.234;6.578;2022-09-25T12:53:48;15.30;99.90
52413;DHT22;38339;53.234;6.578;2022-09-25T12:56:24;15.20;99.90
52413;DHT22;38339;53.234;6.578;2022-09-25T12:59:15;15.20;99.90
52413;DHT22;38339;53.234;6.578;2022-09-25T13:02:00;15.20;99.90
52413;DHT22;38339;53.234;6.578;2022-09-25T13:07:39;15.10;99.90
52413;DHT22;38339;53.234;6.578;2022-09-25T13:10:22;15.00;99.90
52413;DHT22;38339;53.234;6.578;2022-09-25T13:12:53;15.00;99.90
52413;DHT22;38339;53.234;6.578;2022-09-25T13:15:23;15.00;99.90
52413;DHT22;38339;53.234;6.578;2022-09-25T13:17:50;15.00;99.90
52413;DHT22;38339;53.234;6.578;2022-09-25T13:23:08;15.10;99.90
52413;DHT22;38339;53.234;6.578;2022-09-25T13:25:43;15.10;99.90
52413;DHT22;38339;53.234;6.578;2022-09-25T13:28:18;15.20;99.90
52413;DHT22;38339;53.234;6.578;2022-09-25T13:31:10;15.30;99.90
52413;DHT22;38339;53.234;6.578;2022-09-25T13:33:51;15.40;99.90
52413;DHT22;38339;53.234;6.578;2022-09-25T13:36:36;15.50;99.90
52413;DHT22;38339;53.234;6.578;2022-09-25T13:39:35;15.60;99.90
52413;DHT22;38339;53.234;6.578;2022-09-25T13:48:02;15.60;99.90
52413;DHT22;38339;53.234;6.578;2022-09-25T13:50:39;15.60;99.90
52413;DHT22;38339;53.234;6.578;2022-09-25T14:04:00;15.70;99.90
52413;DHT22;38339;53.234;6.578;2022-09-25T14:06:31;15.70;99.90
52413;DHT22;38339;53.234;6.578;2022-09-25T14:09:07;15.80;99.90
52413;DHT22;38339;53.234;6.578;2022-09-25T14:11:36;15.70;99.90
52413;DHT22;38339;53.234;6.578;2022-09-25T14:14:19;15.70;99.90
52413;DHT22;38339;53.234;6.578;2022-09-25T14:16:53;15.70;99.90
52413;DHT22;38339;53.234;6.578;2022-09-25T14:19:25;15.80;99.90
52413;DHT22;38339;53.234;6.578;2022-09-25T14:21:51;15.80;99.90
52413;DHT22;38339;53.234;6.578;2022-09-25T14:24:20;16.00;99.90
52413;DHT22;38339;53.234;6.578;2022-09-25T14:26:48;16.10;99.90
52413;DHT22;38339;53.234;6.578;2022-09-25T14:29:27;16.20;99.90
52413;DHT22;38339;53.234;6.578;2022-09-25T14:45:39;16.10;99.90
52413;DHT22;38339;53.234;6.578;2022-09-25T14:48:18;15.90;99.90
52413;DHT22;38339;53.234;6.578;2022-09-25T14:50:48;15.70;99.90
52413;DHT22;38339;53.234;6.578;2022-09-25T14:53:26;15.60;99.90
52413;DHT22;38339;53.234;6.578;2022-09-25T14:55:53;15.50;99.90
52413;DHT22;38339;53.234;6.578;2022-09-25T14:58:23;15.50;99.90
52413;DHT22;38339;53.234;6.578;2022-09-25T15:00:55;15.50;99.90
52413;DHT22;38339;53.234;6.578;2022-09-25T15:03:28;15.60;99.90
52413;DHT22;38339;53.234;6.578;2022-09-25T15:05:58;15.60;99.90
52413;DHT22;38339;53.234;6.578;2022-09-25T15:11:22;15.50;99.90
52413;DHT22;38339;53.234;6.578;2022-09-25T15:13:46;15.50;99.90
52413;DHT22;38339;53.234;6.578;2022-09-25T15:16:16;15.50;99.90
52413;DHT22;38339;53.234;6.578;2022-09-25T15:19:05;15.50;99.90
52413;DHT22;38339;53.234;6.578;2022-09-25T15:21:40;15.50;99.90
52413;DHT22;38339;53.234;6.578;2022-09-25T15:24:17;15.70;99.90
52413;DHT22;38339;53.234;6.578;2022-09-25T15:26:48;15.70;99.90
52413;DHT22;38339;53.234;6.578;2022-09-25T15:29:19;15.90;99.90
52413;DHT22;38339;53.234;6.578;2022-09-25T15:31:46;15.90;99.90
52413;DHT22;38339;53.234;6.578;2022-09-25T15:34:22;16.00;99.80
52413;DHT22;38339;53.234;6.578;2022-09-25T15:36:50;16.10;99.50
52413;DHT22;38339;53.234;6.578;2022-09-25T15:39:24;16.10;99.20
52413;DHT22;38339;53.234;6.578;2022-09-25T15:41:50;16.20;99.20
52413;DHT22;38339;53.234;6.578;2022-09-25T15:44:24;16.20;99.20
52413;DHT22;38339;53.234;6.578;2022-09-25T15:46:55;16.20;99.30
52413;DHT22;38339;53.234;6.578;2022-09-25T15:49:33;16.10;99.20
52413;DHT22;38339;53.234;6.578;2022-09-25T15:55:10;15.80;99.40
52413;DHT22;38339;53.234;6.578;2022-09-25T15:57:40;15.70;99.90
52413;DHT22;38339;53.234;6.578;2022-09-25T16:00:15;15.50;99.90
52413;DHT22;38339;53.234;6.578;2022-09-25T16:03:12;15.40;99.90
52413;DHT22;38339;53.234;6.578;2022-09-25T16:05:58;15.20;99.90
52413;DHT22;38339;53.234;6.578;2022-09-25T16:13:45;14.90;99.90
52413;DHT22;38339;53.234;6.578;2022-09-25T16:16:30;14.90;99.90
52413;DHT22;38339;53.234;6.578;2022-09-25T16:19:20;14.90;99.90
52413;DHT22;38339;53.234;6.578;2022-09-25T16:21:51;14.80;99.90
52413;DHT22;38339;53.234;6.578;2022-09-25T16:24:22;14.80;99.90
52413;DHT22;38339;53.234;6.578;2022-09-25T16:27:00;14.70;99.90
52413;DHT22;38339;53.234;6.578;2022-09-25T16:29:31;14.60;99.90
52413;DHT22;38339;53.234;6.578;2022-09-25T16:32:03;14.60;99.90
52413;DHT22;38339;53.234;6.578;2022-09-25T16:34:37;14.60;99.90
52413;DHT22;38339;53.234;6.578;2022-09-25T16:37:07;14.50;99.90
52413;DHT22;38339;53.234;6.578;2022-09-25T16:39:42;14.50;99.90
52413;DHT22;38339;53.234;6.578;2022-09-25T16:44:46;14.50;99.90
52413;DHT22;38339;53.234;6.578;2022-09-25T16:47:17;14.50;99.90
52413;DHT22;38339;53.234;6.578;2022-09-25T16:49:44;14.40;99.90
52413;DHT22;38339;53.234;6.578;2022-09-25T16:52:15;14.40;99.90
52413;DHT22;38339;53.234;6.578;2022-09-25T16:54:52;14.30;99.90
52413;DHT22;38339;53.234;6.578;2022-09-25T16:57:20;14.30;99.90
52413;DHT22;38339;53.234;6.578;2022-09-25T16:59:46;14.30;99.90
52413;DHT22;38339;53.234;6.578;2022-09-25T17:02:28;14.30;99.90
52413;DHT22;38339;53.234;6.578;2022-09-25T17:04:59;14.20;99.90
52413;DHT22;38339;53.234;6.578;2022-09-25T17:07:25;14.20;99.90
52413;DHT22;38339;53.234;6.578;2022-09-25T17:09:51;14.20;99.90
52413;DHT22;38339;53.234;6.578;2022-09-25T17:12:19;14.10;99.90
52413;DHT22;38339;53.234;6.578;2022-09-25T17:14:46;14.10;99.90
52413;DHT22;38339;53.234;6.578;2022-09-25T17:17:16;14.10;99.90
52413;DHT22;38339;53.234;6.578;2022-09-25T17:19:42;14.10;99.90
52413;DHT22;38339;53.234;6.578;2022-09-25T17:22:08;14.10;99.90
52413;DHT22;38339;53.234;6.578;2022-09-25T17:24:34;14.10;99.90
52413;DHT22;38339;53.234;6.578;2022-09-25T17:26:59;14.00;99.90
52413;DHT22;38339;53.234;6.578;2022-09-25T17:29:26;14.10;99.90
52413;DHT22;38339;53.234;6.578;2022-09-25T17:31:53;14.00;99.90
52413;DHT22;38339;53.234;6.578;2022-09-25T17:34:20;14.00;99.90
52413;DHT22;38339;53.234;6.578;2022-09-25T17:36:49;13.90;99.90
52413;DHT22;38339;53.234;6.578;2022-09-25T17:39:15;13.90;99.90
52413;DHT22;38339;53.234;6.578;2022-09-25T17:41:41;13.90;99.90
52413;DHT22;38339;53.234;6.578;2022-09-25T17:44:15;13.80;99.90
52413;DHT22;38339;53.234;6.578;2022-09-25T17:46:41;13.80;99.90
52413;DHT22;38339;53.234;6.578;2022-09-25T17:49:09;13.80;99.90
52413;DHT22;38339;53.234;6.578;2022-09-25T17:51:36;13.70;99.90
52413;DHT22;38339;53.234;6.578;2022-09-25T17:54:02;13.70;99.90
52413;DHT22;38339;53.234;6.578;2022-09-25T17:56:30;13.60;99.90
52413;DHT22;38339;53.234;6.578;2022-09-25T17:58:59;13.60;99.90
52413;DHT22;38339;53.234;6.578;2022-09-25T18:01:28;13.50;99.90
52413;DHT22;38339;53.234;6.578;2022-09-25T18:03:57;13.40;99.90
52413;DHT22;38339;53.234;6.578;2022-09-25T18:06:24;13.40;99.90
52413;DHT22;38339;53.234;6.578;2022-09-25T18:08:50;13.40;99.90
52413;DHT22;38339;53.234;6.578;2022-09-25T18:11:18;13.30;99.90
52413;DHT22;38339;53.234;6.578;2022-09-25T18:13:45;13.30;99.90
52413;DHT22;38339;53.234;6.578;2022-09-25T18:16:17;13.20;99.90
52413;DHT22;38339;53.234;6.578;2022-09-25T18:18:45;13.20;99.90
52413;DHT22;38339;53.234;6.578;2022-09-25T18:21:29;13.10;99.90
52413;DHT22;38339;53.234;6.578;2022-09-25T18:24:14;13.00;99.90
52413;DHT22;38339;53.234;6.578;2022-09-25T18:26:41;13.00;99.90
52413;DHT22;38339;53.234;6.578;2022-09-25T18:29:08;13.00;99.90
52413;DHT22;38339;53.234;6.578;2022-09-25T18:31:34;13.00;99.90
52413;DHT22;38339;53.234;6.578;2022-09-25T18:34:00;13.00;99.90
52413;DHT22;38339;53.234;6.578;2022-09-25T18:36:26;12.90;99.90
52413;DHT22;38339;53.234;6.578;2022-09-25T18:38:51;12.90;99.90